Flight Track Log - Related Links

Times and Time Zones

All times are in EDT time to prevent confusion due to time zone crossing. See the SWA34 flight status page for this flight to view local times or setup timezone preferences in your user account.

Time Position Orientation Groundspeed Altitude Reporting Facility
EDT Latitude Longitude Course Direction KTS MPH feet Rate Location/Type
Mon 07:00:21 AM 26.0750 -80.1344 84° East 166 191 1,000  Level Miami Center
Mon 07:01:22 AM 26.0806 -80.0767 84° East 210 242 2,800 1,615 Climbing Miami Center
Mon 07:01:39 AM 26.0850 -80.0606 73° East 220 253 3,100 1,967 Climbing Miami Center
Mon 07:02:23 AM 26.1314 -80.0411 21° North 268 308 4,800 2,200 Climbing Miami Center
Mon 07:02:39 AM 26.1458 -80.0439 350° North 275 316 5,300 2,727 Climbing Miami Center
Mon 07:03:18 AM 26.1889 -80.0819 322° Northwest 287 330 7,300 2,600 Climbing Miami Center
Mon 07:03:39 AM 26.2097 -80.0917 337° Northwest 289 333 7,900 2,444 Climbing Miami Center
Mon 07:04:39 AM 26.2731 -80.1492 321° Northwest 301 346 10,600 2,250 Climbing Miami Center
Mon 07:05:39 AM 26.3508 -80.2183 321° Northwest 327 376 12,400 2,200 Climbing Miami Center
Mon 07:06:39 AM 26.4286 -80.2856 322° Northwest 347 399 15,000 2,450 Climbing Miami Center
Mon 07:07:39 AM 26.5258 -80.3325 337° Northwest 362 417 17,300 2,350 Climbing Miami Center
Mon 07:08:39 AM 26.6247 -80.3797 337° Northwest 373 429 19,700 2,150 Climbing Miami Center
Mon 07:09:39 AM 26.7242 -80.4197 340° North 381 438 21,600 1,750 Climbing Miami Center
Mon 07:10:39 AM 26.8292 -80.4742 335° Northwest 397 457 23,200 1,750 Climbing Miami Center
Mon 07:11:39 AM 26.9347 -80.5194 339° North 402 463 25,100 1,600 Climbing Miami Center
Mon 07:12:39 AM 27.0461 -80.5694 338° Northwest 412 474 26,400 1,450 Climbing Miami Center
Mon 07:13:39 AM 27.1556 -80.6175 339° North 417 480 28,000 1,400 Climbing Miami Center
Mon 07:14:39 AM 27.2692 -80.6678 339° North 422 486 29,200 1,400 Climbing Miami Center
Mon 07:15:39 AM 27.3783 -80.7158 339° North 427 491 30,800 900 Climbing Miami Center
Mon 07:16:39 AM 27.4897 -80.7686 337° Northwest 427 491 31,000 100 Climbing Miami Center
Mon 07:17:39 AM 27.6033 -80.8172 339° North 427 491 31,000  Level Miami Center
Mon 07:18:39 AM 27.7125 -80.8678 338° Northwest 427 491 31,000  Level Miami Center
Mon 07:19:39 AM 27.8239 -80.9186 338° Northwest 427 491 31,000  Level Miami Center
Mon 07:20:39 AM 27.9372 -80.9672 339° North 427 491 31,000  Level Miami Center
Mon 07:21:39 AM 28.0506 -81.0186 338° Northwest 432 497 31,000  Level Miami Center
Mon 07:22:39 AM 28.1639 -81.0697 338° Northwest 432 497 31,000  Level Miami Center
Mon 07:23:39 AM 28.2872 -81.1308 336° Northwest 437 503 31,000  Level Miami Center
Mon 07:24:39 AM 28.3881 -81.1725 340° North 431 496 31,000  Level Miami Center
Mon 07:25:39 AM 28.5053 -81.2289 337° Northwest 431 496 31,000 -100 Level Miami Center
Mon 07:26:39 AM 28.6206 -81.2808 338° Northwest 436 502 30,800 -1,214 Descending Miami Center
Mon 07:27:03 AM 28.6786 -81.3072 338° Northwest 438 504 29,300 -2,714 Descending Jacksonville Center
Mon 07:28:03 AM 28.7878 -81.3575 338° Northwest 438 504 27,000 -1,150 Descending Jacksonville Center
Mon 07:29:03 AM 28.9028 -81.3747 353° North 421 484 27,000 -300 Level Jacksonville Center
Mon 07:30:03 AM 29.0197 -81.3872 355° North 411 473 26,400 -1,000 Descending Jacksonville Center
Mon 07:31:03 AM 29.1203 -81.4308 339° North 395 455 25,000 -1,630 Descending Jacksonville Center
Mon 07:31:35 AM 29.1667 -81.4514 339° North 371 427 23,900 -2,400 Descending Jacksonville Center
Mon 07:32:03 AM 29.2208 -81.4625 350° North 379 436 22,600 -2,471 Descending Jacksonville Center
Mon 07:33:00 AM 29.3192 -81.4778 352° North 379 436 20,400 -2,136 Descending Jacksonville Center
Mon 07:34:01 AM 29.4175 -81.4978 350° North 366 421 18,400 -1,869 Descending Jacksonville Center
Mon 07:35:02 AM 29.5181 -81.5156 351° North 361 415 16,600 -1,983 Descending Jacksonville Center
Mon 07:36:02 AM 29.6142 -81.5428 346° North 355 409 14,400 -1,785 Descending Jacksonville Center
Mon 07:37:03 AM 29.7128 -81.5772 343° North 352 405 13,000 -1,140 Descending Jacksonville Center
Mon 07:38:03 AM 29.8050 -81.6097 343° North 347 399 12,100 -1,300 Descending Jacksonville Center
Mon 07:39:03 AM 29.9011 -81.6300 350° North 347 399 10,400 -1,350 Descending Jacksonville Center
Mon 07:40:03 AM 29.9869 -81.6408 354° North 326 375 9,400 -1,220 Descending Jacksonville Center
Mon 07:41:06 AM 30.0747 -81.6492 355° North 293 337 7,900 -1,415 Descending Jacksonville Center
Mon 07:42:06 AM 30.1478 -81.6603 353° North 282 325 6,500 -1,486 Descending Jacksonville Center
Mon 07:42:55 AM 30.2167 -81.6689 354° North 286 329 5,200 -1,328 Descending Jacksonville Center
Mon 07:44:08 AM 30.3067 -81.6800 354° North 275 316 3,800 -1,240 Descending Jacksonville Center
Mon 07:44:56 AM 30.3653 -81.6911 351° North 279 321 2,700 -887 Descending Jacksonville Center
Mon 07:46:03 AM 30.4428 -81.7336 335° Northwest 249 287 2,100 -422 Descending Jacksonville Center
Mon 07:47:04 AM 30.4914 -81.7717 326° Northwest 190 219 1,800 -645 Descending Jacksonville Center
Mon 07:48:04 AM 30.5139 -81.7375 53° Northeast 146 168 800 -835 Descending Jacksonville Center
Mon 07:48:59 AM 30.4886 -81.7114 138° Southeast 133 153 200 -295 Descending Jacksonville Center
Mon 07:50:06 AM 30.4803 -81.7139 194° South 133 153 200  Level Jacksonville Center

Login

Don't have an account? Register now (free) for customized features, flight alerts, and more!